Time;durP1;ratioP1;P1;durP2;ratioP2;P2;SDS_P1;SDS_P2;PMS_P1;PMS_P2;Temp;Humidity;BMP_temperature;BMP_pressure;BME280_temperature;BME280_humidity;BME280_pressure;Samples;Min_cycle;Max_cycle;Signal;HPM_P1;HPM_P2
2021/04/13 00:02:38;;;;;;;18.58;8.60;;;1.60;99.90;;;;;;5107371;27;20050;-80
2021/04/13 00:05:11;;;;;;;17.27;7.40;;;1.60;99.90;;;;;;5103312;27;20047;-80
2021/04/13 00:07:41;;;;;;;16.63;8.30;;;1.50;99.90;;;;;;5124075;27;20054;-79
2021/04/13 00:10:18;;;;;;;20.07;10.10;;;1.50;99.90;;;;;;5086256;27;20193;-79
2021/04/13 00:12:47;;;;;;;17.08;9.23;;;1.60;99.90;;;;;;5110182;27;20610;-79
2021/04/13 00:15:27;;;;;;;18.65;8.27;;;1.50;99.90;;;;;;5091922;28;20627;-78
2021/04/13 00:17:57;;;;;;;12.30;7.40;;;1.40;99.90;;;;;;5125258;27;20417;-78
2021/04/13 00:20:36;;;;;;;20.67;7.22;;;1.50;99.90;;;;;;5101206;28;20050;-78
2021/04/13 00:23:04;;;;;;;14.73;7.35;;;;;;;;;;5083322;27;20799;-78
2021/04/13 00:25:43;;;;;;;14.02;6.80;;;1.40;99.90;;;;;;5109030;27;20061;-79
2021/04/13 00:28:11;;;;;;;16.20;6.32;;;;;;;;;;5122018;27;20074;-79
2021/04/13 00:30:51;;;;;;;17.40;7.90;;;1.40;99.90;;;;;;5129755;27;20441;-79
2021/04/13 00:33:32;;;;;;;12.70;6.50;;;1.40;99.90;;;;;;5105869;27;20036;-79
2021/04/13 00:36:21;;;;;;;17.55;9.57;;;2.00;99.90;;;;;;5137896;27;20533;-81
2021/04/13 00:38:52;;;;;;;14.02;7.10;;;1.10;99.90;;;;;;5146265;27;20057;-79
2021/04/13 00:41:22;;;;;;;13.38;6.80;;;;;;;;;;5111872;28;20048;-79
2021/04/13 00:43:55;;;;;;;14.20;7.00;;;1.10;99.90;;;;;;5127170;28;20058;-82
2021/04/13 00:46:27;;;;;;;14.77;10.15;;;1.20;99.90;;;;;;5129815;27;20051;-80
2021/04/13 00:48:59;;;;;;;16.90;7.30;;;1.10;99.90;;;;;;5116010;27;20414;-79
2021/04/13 00:51:34;;;;;;;12.05;6.78;;;1.10;99.90;;;;;;5124660;27;20402;-78
2021/04/13 00:54:11;;;;;;;25.70;8.52;;;1.00;99.90;;;;;;5112616;27;20051;-79
2021/04/13 00:56:40;;;;;;;15.70;7.93;;;1.00;99.90;;;;;;5092996;28;20176;-82
2021/04/13 00:59:15;;;;;;;15.57;6.72;;;1.00;99.90;;;;;;5103074;27;20399;-80
2021/04/13 01:01:58;;;;;;;15.27;7.53;;;1.00;99.90;;;;;;5129998;27;20062;-79
2021/04/13 01:04:37;;;;;;;16.33;7.95;;;0.80;99.90;;;;;;5122476;27;20603;-80
2021/04/13 01:07:15;;;;;;;14.63;6.97;;;0.80;99.90;;;;;;5108719;28;20055;-80
2021/04/13 01:09:48;;;;;;;15.15;8.15;;;0.80;99.90;;;;;;5097246;28;20050;-82
2021/04/13 01:12:29;;;;;;;25.00;7.65;;;0.70;99.90;;;;;;5131023;28;20059;-80
2021/04/13 01:14:59;;;;;;;18.55;7.63;;;0.50;99.90;;;;;;5111519;28;20074;-79
2021/04/13 01:17:28;;;;;;;9.90;5.88;;;;;;;;;;5111927;28;20102;-78
2021/04/13 01:20:05;;;;;;;13.68;7.20;;;0.70;99.90;;;;;;5125695;28;20382;-78
2021/04/13 01:22:53;;;;;;;12.60;5.80;;;0.60;99.90;;;;;;5093208;28;20047;-78
2021/04/13 01:25:29;;;;;;;11.82;6.38;;;0.70;99.90;;;;;;5115867;28;20062;-79
2021/04/13 01:28:05;;;;;;;13.30;5.68;;;0.80;99.90;;;;;;5098997;28;20047;-79
2021/04/13 01:30:33;;;;;;;16.40;7.15;;;;;;;;;;5107046;28;20055;-79
2021/04/13 01:33:35;;;;;;;14.63;6.25;;;0.60;99.90;;;;;;5130715;27;20062;-80
2021/04/13 01:36:18;;;;;;;13.50;5.75;;;0.70;99.90;;;;;;5095015;27;20044;-78
2021/04/13 01:39:15;;;;;;;16.13;6.78;;;0.60;99.90;;;;;;5127512;27;20055;-77
2021/04/13 01:44:26;;;;;;;18.15;5.55;;;0.50;99.90;;;;;;5114762;27;20042;-78
2021/04/13 01:46:59;;;;;;;15.65;6.80;;;0.50;99.90;;;;;;5112440;27;20058;-79
2021/04/13 01:49:29;;;;;;;14.32;6.32;;;0.40;99.90;;;;;;5099224;27;20043;-79
2021/04/13 01:51:58;;;;;;;19.13;6.45;;;0.40;99.90;;;;;;5098933;27;20059;-78
2021/04/13 01:54:26;;;;;;;13.10;7.07;;;;;;;;;;5116952;27;20054;-79
2021/04/13 01:57:12;;;;;;;11.45;6.55;;;0.50;99.90;;;;;;5132784;27;20055;-78
2021/04/13 01:59:45;;;;;;;11.15;5.60;;;0.50;99.90;;;;;;5125093;27;20066;-79
2021/04/13 02:02:21;;;;;;;12.15;5.25;;;0.50;99.90;;;;;;5103643;27;20050;-79
2021/04/13 02:04:58;;;;;;;11.50;6.20;;;0.40;99.90;;;;;;5118890;27;20065;-79
2021/04/13 02:07:55;;;;;;;;;;;0.40;99.90;;;;;;5119254;27;20560;-79
2021/04/13 02:10:32;;;;;;;10.80;6.05;;;0.30;99.90;;;;;;5122491;27;19919;-79
2021/04/13 02:13:30;;;;;;;15.18;6.93;;;0.30;99.90;;;;;;5113632;27;20054;-79
2021/04/13 02:16:30;;;;;;;17.35;6.75;;;0.30;99.90;;;;;;5120246;27;20055;-79
2021/04/13 02:19:00;;;;;;;15.90;6.82;;;0.20;99.90;;;;;;5130038;27;20520;-79
2021/04/13 02:21:36;;;;;;;12.75;7.40;;;0.20;99.90;;;;;;5114581;27;20058;-79
2021/04/13 02:24:20;;;;;;;16.70;7.60;;;0.20;99.90;;;;;;5092961;27;20047;-79
2021/04/13 02:26:55;;;;;;;25.40;10.30;;;0.20;99.90;;;;;;5115207;27;20050;-80
2021/04/13 02:29:37;;;;;;;18.20;8.98;;;0.20;99.90;;;;;;5114619;27;20043;-81
2021/04/13 02:32:14;;;;;;;19.88;8.07;;;0.20;99.90;;;;;;5113465;27;20055;-78
2021/04/13 02:34:46;;;;;;;18.13;8.70;;;0.10;99.90;;;;;;5100089;28;20444;-78
2021/04/13 02:37:21;;;;;;;18.60;7.88;;;0.10;99.90;;;;;;5101004;27;20067;-79
2021/04/13 02:40:19;;;;;;;27.48;9.55;;;0.10;99.90;;;;;;5102882;27;20528;-80
2021/04/13 02:42:51;;;;;;;17.25;8.43;;;0.10;99.90;;;;;;5132335;27;20047;-79
2021/04/13 02:45:23;;;;;;;17.25;8.63;;;0.00;99.90;;;;;;5126501;27;20043;-82
2021/04/13 02:47:55;;;;;;;20.20;8.02;;;0.00;99.90;;;;;;5118014;27;20471;-78
2021/04/13 02:50:23;;;;;;;21.60;10.27;;;;;;;;;;5074059;27;20051;-78
2021/04/13 02:52:53;;;;;;;19.77;9.77;;;-0.10;99.90;;;;;;5112575;27;20043;-79
2021/04/13 02:55:27;;;;;;;19.27;8.57;;;0.00;99.90;;;;;;5085264;28;20114;-79
2021/04/13 02:57:59;;;;;;;19.75;10.60;;;0.00;99.90;;;;;;5127761;27;20063;-82
2021/04/13 03:00:37;;;;;;;20.23;8.63;;;-0.30;99.90;;;;;;5113790;27;20043;-78
2021/04/13 03:03:05;;;;;;;18.23;7.75;;;;;;;;;;5126026;27;20055;-82
2021/04/13 03:05:33;;;;;;;14.55;6.40;;;0.00;99.90;;;;;;5113702;27;20055;-80
2021/04/13 03:08:10;;;;;;;11.68;5.88;;;0.00;99.90;;;;;;5115516;27;20052;-78
2021/04/13 03:10:41;;;;;;;17.48;6.13;;;0.00;99.90;;;;;;5123681;27;20066;-78
2021/04/13 03:13:13;;;;;;;18.20;7.70;;;0.00;99.90;;;;;;5127893;27;20402;-79
2021/04/13 03:15:42;;;;;;;16.02;6.68;;;-0.10;99.90;;;;;;5119975;27;20057;-79
2021/04/13 03:18:20;;;;;;;11.57;6.93;;;0.00;99.90;;;;;;5110692;27;20058;-81
2021/04/13 03:20:51;;;;;;;13.18;7.68;;;0.00;99.90;;;;;;5113870;27;20067;-80
2021/04/13 03:23:23;;;;;;;20.15;7.35;;;0.00;99.90;;;;;;5131120;27;20054;-79
2021/04/13 03:25:57;;;;;;;14.55;6.13;;;0.00;99.90;;;;;;5113273;27;20047;-79
2021/04/13 03:28:35;;;;;;;17.52;6.57;;;0.00;99.90;;;;;;5113110;27;20047;-78
2021/04/13 03:31:03;;;;;;;12.32;5.60;;;-0.10;99.90;;;;;;5113599;27;20054;-79
2021/04/13 03:33:33;;;;;;;11.95;6.03;;;0.00;99.90;;;;;;5131011;27;20051;-78
2021/04/13 03:36:18;;;;;;;10.63;5.60;;;-1.80;99.90;;;;;;5112819;27;20502;-81
2021/04/13 03:38:48;;;;;;;10.95;5.50;;;-0.10;99.90;;;;;;5092701;27;20051;-78
2021/04/13 03:41:18;;;;;;;9.95;5.85;;;-0.10;99.90;;;;;;5097016;27;20055;-79
2021/04/13 03:43:54;;;;;;;12.75;6.47;;;-0.20;99.90;;;;;;5107375;27;20413;-81
2021/04/13 03:46:23;;;;;;;14.90;6.47;;;-0.10;99.90;;;;;;5130918;27;20069;-78
2021/04/13 03:48:52;;;;;;;12.02;5.68;;;-0.10;99.90;;;;;;5095773;27;20513;-79
2021/04/13 03:51:31;;;;;;;16.08;9.05;;;-0.20;99.90;;;;;;5131158;27;20055;-80
2021/04/13 03:53:59;;;;;;;19.60;7.82;;;;;;;;;;5128873;27;20398;-80
2021/04/13 03:56:27;;;;;;;18.95;7.32;;;-0.30;99.90;;;;;;5113267;27;20269;-78
2021/04/13 03:58:59;;;;;;;17.75;7.55;;;-0.10;99.90;;;;;;5100915;28;20409;-78
2021/04/13 04:01:30;;;;;;;10.05;6.57;;;0.00;99.90;;;;;;5106946;27;20051;-78
2021/04/13 04:04:04;;;;;;;14.13;7.03;;;-0.10;99.90;;;;;;5112490;27;20047;-77
2021/04/13 04:06:44;;;;;;;17.73;7.15;;;-0.20;99.90;;;;;;5125080;27;20056;-78
2021/04/13 04:09:32;;;;;;;15.87;6.70;;;-0.10;99.90;;;;;;5096831;27;20054;-80
2021/04/13 04:12:16;;;;;;;14.18;7.22;;;-0.10;99.90;;;;;;5141286;27;20303;-85
2021/04/13 04:14:54;;;;;;;17.83;8.05;;;0.00;99.90;;;;;;5137941;27;20055;-80
2021/04/13 04:17:22;;;;;;;16.35;5.57;;;;;;;;;;5132814;27;20047;-81
2021/04/13 04:19:59;;;;;;;11.85;5.32;;;-1.40;99.90;;;;;;5120419;27;20054;-81
2021/04/13 04:22:30;;;;;;;11.90;6.93;;;-0.20;99.90;;;;;;5131464;27;20089;-78
2021/04/13 04:25:39;;;;;;;14.52;7.18;;;-0.20;99.90;;;;;;5113646;28;20502;-79
2021/04/13 04:28:23;;;;;;;13.38;5.85;;;-0.40;99.90;;;;;;5109531;27;20411;-82
2021/04/13 04:30:50;;;;;;;17.73;6.18;;;;;;;;;;5120222;27;20060;-78
2021/04/13 04:33:38;;;;;;;13.50;6.95;;;-0.10;99.90;;;;;;5091878;27;20047;-80
2021/04/13 04:36:31;;;;;;;9.82;5.97;;;-0.10;99.90;;;;;;5120190;27;20048;-82
2021/04/13 04:39:34;;;;;;;14.68;5.20;;;-0.10;99.90;;;;;;5112998;27;20050;-79
2021/04/13 04:42:10;;;;;;;16.35;6.60;;;-0.20;99.90;;;;;;5100723;28;20054;-79
2021/04/13 04:44:39;;;;;;;14.18;7.30;;;-0.10;99.90;;;;;;5110646;27;20050;-82
2021/04/13 04:47:35;;;;;;;17.30;6.63;;;-0.70;99.90;;;;;;5088836;27;20052;-79
2021/04/13 04:50:15;;;;;;;13.15;7.50;;;-0.10;99.90;;;;;;5093524;28;20054;-82
2021/04/13 04:52:45;;;;;;;21.15;7.25;;;;;;;;;;5134632;27;20047;-78
2021/04/13 04:55:15;;;;;;;17.08;8.82;;;-0.10;99.90;;;;;;5115597;27;20264;-79
2021/04/13 04:57:43;;;;;;;17.02;7.35;;;;;;;;;;5100294;28;20039;-82
2021/04/13 05:00:11;;;;;;;15.50;6.18;;;;;;;;;;5113492;28;20078;-82
2021/04/13 05:02:38;;;;;;;15.48;7.57;;;;;;;;;;5116118;27;20060;-81
2021/04/13 05:05:06;;;;;;;17.10;8.13;;;;;;;;;;5109001;28;20047;-79
2021/04/13 05:07:34;;;;;;;17.30;8.05;;;;;;;;;;5109759;27;20056;-79
2021/04/13 05:10:01;;;;;;;10.25;5.72;;;;;;;;;;5097989;28;20517;-78
2021/04/13 05:12:29;;;;;;;14.75;7.93;;;;;;;;;;5115275;28;20066;-82
2021/04/13 05:14:57;;;;;;;21.13;8.48;;;;;;;;;;5114537;28;20086;-81
2021/04/13 05:17:25;;;;;;;14.43;6.43;;;;;;;;;;5103317;28;20498;-80
2021/04/13 05:19:52;;;;;;;15.82;6.93;;;;;;;;;;5129069;28;20538;-82
2021/04/13 05:22:20;;;;;;;17.13;6.88;;;;;;;;;;5127703;28;20055;-81
2021/04/13 05:24:47;;;;;;;16.10;8.25;;;;;;;;;;5106300;28;20062;-81
2021/04/13 05:27:15;;;;;;;22.40;7.65;;;;;;;;;;5102007;28;20055;-81
2021/04/13 05:29:42;;;;;;;15.98;8.20;;;;;;;;;;5101049;28;20064;-82
2021/04/13 05:32:14;;;;;;;17.60;7.00;;;;;;;;;;5118950;28;20058;-78
2021/04/13 05:34:42;;;;;;;16.98;6.82;;;;;;;;;;5123336;28;20406;-82
2021/04/13 05:37:10;;;;;;;21.40;8.68;;;;;;;;;;5081405;28;20050;-81
2021/04/13 05:39:38;;;;;;;11.70;6.47;;;;;;;;;;5127284;28;20175;-82
2021/04/13 05:42:06;;;;;;;17.80;7.20;;;;;;;;;;5109247;28;20505;-82
2021/04/13 05:44:34;;;;;;;15.23;7.40;;;;;;;;;;5105263;28;20055;-84
2021/04/13 05:47:02;;;;;;;18.95;7.35;;;;;;;;;;5120293;28;20055;-82
2021/04/13 05:49:29;;;;;;;20.42;7.20;;;;;;;;;;5092495;28;20051;-81
2021/04/13 05:51:57;;;;;;;16.40;7.82;;;;;;;;;;5096714;28;20051;-79
2021/04/13 05:54:24;;;;;;;19.70;8.07;;;;;;;;;;5126408;28;20066;-81
2021/04/13 05:56:53;;;;;;;14.70;7.05;;;0.10;99.90;;;;;;5127900;28;20051;-81
2021/04/13 05:59:21;;;;;;;14.43;6.35;;;;;;;;;;5118399;28;20486;-81
2021/04/13 06:02:03;;;;;;;12.05;7.18;;;0.20;99.90;;;;;;5086139;28;20512;-83
2021/04/13 06:04:31;;;;;;;16.30;6.97;;;;;;;;;;5108815;28;20047;-83
2021/04/13 06:06:59;;;;;;;14.35;7.28;;;;;;;;;;5119620;28;20482;-82
2021/04/13 06:09:26;;;;;;;14.60;7.47;;;;;;;;;;5122654;28;20055;-86
2021/04/13 06:11:56;;;;;;;22.73;9.90;;;0.50;99.90;;;;;;5108757;28;20055;-84
2021/04/13 06:14:24;;;;;;;19.75;6.78;;;;;;;;;;5125272;27;20055;-84
2021/04/13 06:16:52;;;;;;;14.13;7.65;;;;;;;;;;5131205;27;20058;-83
2021/04/13 06:19:20;;;;;;;21.92;7.55;;;;;;;;;;5130596;27;20051;-80
2021/04/13 06:21:50;;;;;;;17.23;7.72;;;;;;;;;;5130338;27;20525;-84
2021/04/13 06:24:17;;;;;;;21.13;8.00;;;;;;;;;;5117922;27;20414;-83
2021/04/13 06:26:45;;;;;;;19.92;8.40;;;;;;;;;;5129617;27;20054;-81
2021/04/13 06:29:13;;;;;;;20.77;9.85;;;;;;;;;;5112539;27;20062;-86
2021/04/13 06:31:41;;;;;;;13.98;7.25;;;;;;;;;;5109474;27;20047;-84
2021/04/13 06:34:10;;;;;;;14.52;9.02;;;;;;;;;;5124171;27;20078;-80
2021/04/13 06:36:38;;;;;;;18.83;7.38;;;;;;;;;;5124471;27;20051;-83
2021/04/13 06:39:07;;;;;;;13.57;8.90;;;1.40;99.90;;;;;;5130656;27;20055;-83
2021/04/13 06:42:06;;;;;;;16.00;7.28;;;1.30;99.90;;;;;;5090826;27;20066;-82
2021/04/13 06:44:48;;;;;;;13.48;6.80;;;1.60;99.90;;;;;;5125289;27;20047;-83
2021/04/13 06:47:40;;;;;;;16.17;9.10;;;1.80;99.90;;;;;;5130922;27;20062;-80
2021/04/13 06:50:51;;;;;;;25.42;9.55;;;1.80;99.90;;;;;;5120102;27;20058;-80
2021/04/13 06:53:47;;;;;;;21.52;11.63;;;2.00;99.90;;;;;;5098557;27;20058;-82
2021/04/13 06:56:38;;;;;;;14.73;9.15;;;2.10;99.90;;;;;;5108864;27;20054;-85
2021/04/13 06:59:18;;;;;;;16.88;8.77;;;;;;;;;;5112052;27;20059;-84
2021/04/13 07:02:11;;;;;;;19.73;9.00;;;2.40;99.90;;;;;;5114602;27;20058;-85
2021/04/13 07:04:45;;;;;;;19.20;8.10;;;2.50;99.90;;;;;;5073424;28;20059;-84
2021/04/13 07:07:26;;;;;;;14.63;8.45;;;2.70;99.90;;;;;;5103820;27;20047;-83
2021/04/13 07:10:15;;;;;;;18.65;8.02;;;2.80;99.90;;;;;;5124850;27;20039;-82
2021/04/13 07:13:07;;;;;;;16.88;8.10;;;2.90;99.90;;;;;;5124738;27;20058;-83
2021/04/13 07:15:54;;;;;;;18.90;8.27;;;3.00;99.90;;;;;;5091687;27;20066;-83
2021/04/13 07:18:47;;;;;;;15.95;9.10;;;3.20;99.90;;;;;;5129470;27;20050;-83
2021/04/13 07:21:48;;;;;;;18.98;8.65;;;3.30;99.90;;;;;;5110778;27;20205;-83
2021/04/13 07:24:30;;;;;;;16.73;8.95;;;3.50;99.90;;;;;;5103431;28;20395;-82
2021/04/13 07:27:07;;;;;;;13.20;7.20;;;3.60;99.90;;;;;;5089389;27;20040;-83
2021/04/13 07:29:38;;;;;;;17.33;7.22;;;3.70;99.90;;;;;;5103997;28;20051;-82
2021/04/13 07:32:14;;;;;;;16.45;8.38;;;4.10;99.90;;;;;;5121653;27;20059;-83
2021/04/13 07:34:44;;;;;;;16.75;7.40;;;4.00;99.90;;;;;;5124253;27;20059;-84
2021/04/13 07:37:30;;;;;;;15.27;7.90;;;;;;;;;;5125111;27;20055;-85
2021/04/13 07:40:01;;;;;;;17.00;8.88;;;4.40;99.90;;;;;;5110218;27;20058;-84
2021/04/13 07:42:34;;;;;;;12.52;6.97;;;4.30;99.90;;;;;;5126628;27;20066;-84
2021/04/13 07:45:14;;;;;;;17.45;7.88;;;;;;;;;;5108580;27;20035;-84
2021/04/13 07:48:27;;;;;;;10.07;4.68;;;4.90;99.90;;;;;;5091718;27;20494;-85
2021/04/13 07:51:19;;;;;;;6.72;4.40;;;5.20;99.90;;;;;;5108168;27;20047;-84
2021/04/13 07:53:47;;;;;;;6.22;4.30;;;;;;;;;;5099826;27;20490;-82
2021/04/13 07:56:47;;;;;;;9.82;4.07;;;5.80;99.90;;;;;;5104899;27;20051;-85
2021/04/13 07:59:41;;;;;;;10.55;3.97;;;6.10;99.90;;;;;;5120120;27;20051;-83
2021/04/13 08:02:09;;;;;;;13.98;4.97;;;;;;;;;;5102580;27;20044;-84
2021/04/13 08:04:36;;;;;;;4.65;4.20;;;;;;;;;;5127142;27;20131;-84
2021/04/13 08:07:26;;;;;;;7.32;4.68;;;6.60;99.90;;;;;;5102375;27;20047;-84
2021/04/13 08:10:16;;;;;;;14.32;4.93;;;6.40;99.70;;;;;;5108464;27;20426;-85
2021/04/13 08:13:12;;;;;;;8.15;4.05;;;6.60;99.00;;;;;;5087421;27;20525;-82
2021/04/13 08:15:48;;;;;;;9.10;4.05;;;7.20;98.90;;;;;;5110860;27;20043;-84
2021/04/13 08:18:19;;;;;;;7.05;4.10;;;;;;;;;;5134915;27;20066;-84
2021/04/13 08:20:47;;;;;;;13.50;5.45;;;;;;;;;;5108847;27;20046;-84
2021/04/13 08:23:24;;;;;;;13.05;5.18;;;7.60;97.50;;;;;;5144769;27;20055;-83
2021/04/13 08:26:12;;;;;;;13.13;5.20;;;7.60;96.60;;;;;;5116375;27;20568;-85
2021/04/13 08:29:03;;;;;;;8.98;5.20;;;7.70;97.60;;;;;;5110798;27;20066;-84
2021/04/13 08:34:24;;;;;;;9.15;4.70;;;;;;;;;;5105616;27;20070;-83
2021/04/13 08:37:08;;;;;;;10.40;4.53;;;8.20;96.50;;;;;;5096299;27;20418;-84
2021/04/13 08:39:50;;;;;;;14.90;5.68;;;8.30;93.20;;;;;;5111073;27;20501;-83
2021/04/13 08:42:18;;;;;;;9.05;5.43;;;;;;;;;;5095212;27;20651;-83
2021/04/13 08:44:55;;;;;;;12.38;5.20;;;;;;;;;;5114927;27;20123;-83
2021/04/13 08:47:48;;;;;;;11.27;4.75;;;8.80;92.60;;;;;;5097248;27;20415;-84
2021/04/13 08:50:36;;;;;;;13.80;5.85;;;9.10;92.50;;;;;;5084095;27;20044;-83
2021/04/13 08:53:31;;;;;;;18.27;5.63;;;9.30;88.30;;;;;;5116398;27;20051;-82
2021/04/13 08:56:11;;;;;;;6.30;3.92;;;9.30;90.10;;;;;;5124889;27;20048;-83
2021/04/13 08:58:43;;;;;;;13.45;5.13;;;6.30;88.30;;;;;;5110483;27;20059;-83
2021/04/13 09:01:30;;;;;;;7.78;3.53;;;9.40;84.20;;;;;;5109279;27;20051;-82
2021/04/13 09:03:59;;;;;;;6.00;3.08;;;9.50;88.20;;;;;;5127628;27;20055;-82
2021/04/13 09:07:09;;;;;;;21.27;4.72;;;9.50;86.00;;;;;;5088696;27;20047;-83
2021/04/13 09:09:36;;;;;;;11.32;3.85;;;;;;;;;;5058115;28;20040;-83
2021/04/13 09:12:16;;;;;;;8.75;3.85;;;9.40;82.40;;;;;;5054929;28;20052;-83
2021/04/13 09:14:57;;;;;;;9.13;3.92;;;9.50;82.00;;;;;;5081380;28;20062;-85
2021/04/13 09:17:45;;;;;;;9.68;3.90;;;9.40;84.90;;;;;;5122658;28;20058;-83
2021/04/13 09:20:35;;;;;;;11.25;4.22;;;9.40;80.60;;;;;;5111954;28;20050;-84
2021/04/13 09:23:06;;;;;;;6.93;3.65;;;9.30;78.30;;;;;;5128070;28;20047;-83
2021/04/13 09:26:11;;;;;;;6.82;3.15;;;9.50;79.80;;;;;;5130999;28;20047;-85
2021/04/13 09:28:54;;;;;;;7.18;3.58;;;9.40;82.70;;;;;;5130145;28;20063;-83
2021/04/13 09:31:31;;;;;;;10.43;5.32;;;9.50;99.00;;;;;;5086773;28;20047;-86
2021/04/13 09:34:25;;;;;;;7.60;3.50;;;9.60;82.20;;;;;;5089801;28;20288;-82
2021/04/13 09:37:22;;;;;;;10.80;4.93;;;9.80;83.40;;;;;;5083263;28;20046;-84
2021/04/13 09:40:01;;;;;;;8.40;4.43;;;9.80;80.20;;;;;;5089181;28;20059;-84
2021/04/13 09:42:32;;;;;;;7.75;3.95;;;9.70;83.50;;;;;;5093035;28;20055;-83
2021/04/13 09:45:24;;;;;;;11.45;5.18;;;9.80;79.60;;;;;;5124650;27;20376;-84
2021/04/13 09:48:13;;;;;;;11.20;3.55;;;11.90;80.40;;;;;;5093057;28;20047;-84
2021/04/13 09:50:58;;;;;;;11.35;6.35;;;10.20;78.80;;;;;;5128567;27;20051;-84
2021/04/13 09:53:37;;;;;;;9.75;4.38;;;10.50;78.50;;;;;;5114292;27;20069;-84
2021/04/13 09:56:26;;;;;;;6.88;3.95;;;10.30;92.00;;;;;;5093588;27;20054;-85
2021/04/13 09:59:32;;;;;;;9.52;4.28;;;10.70;77.00;;;;;;5105222;27;20047;-85
2021/04/13 10:02:44;;;;;;;9.88;4.82;;;10.80;79.60;;;;;;5094992;27;20066;-83
2021/04/13 10:05:17;;;;;;;9.70;5.55;;;11.00;77.10;;;;;;5153795;27;20051;-84
2021/04/13 10:07:53;;;;;;;18.48;4.38;;;10.90;75.70;;;;;;5135783;27;20047;-83
2021/04/13 10:10:47;;;;;;;7.28;3.88;;;10.80;75.10;;;;;;5111930;27;20073;-86
2021/04/13 10:13:42;;;;;;;9.20;5.90;;;12.40;79.40;;;;;;5140272;27;20050;-85
2021/04/13 10:16:34;;;;;;;12.45;4.70;;;10.70;75.70;;;;;;5105726;27;20058;-85
2021/04/13 10:19:45;;;;;;;8.40;3.83;;;10.50;75.00;;;;;;5118843;27;20395;-83
2021/04/13 10:22:24;;;;;;;9.63;4.95;;;9.30;78.10;;;;;;5134598;27;20062;-83
2021/04/13 10:25:15;;;;;;;13.20;4.53;;;10.40;74.80;;;;;;5138261;27;20039;-83
2021/04/13 10:28:02;;;;;;;10.10;4.53;;;10.20;81.10;;;;;;5101431;27;20047;-82
2021/04/13 10:31:06;;;;;;;8.13;4.18;;;10.30;74.70;;;;;;5102620;27;20051;-84
2021/04/13 10:33:33;;;;;;;9.38;4.40;;;;;;;;;;5092666;27;20043;-84
2021/04/13 10:36:22;;;;;;;10.30;5.40;;;10.50;75.00;;;;;;5132096;27;20051;-83
2021/04/13 10:39:33;;;;;;;12.70;5.57;;;10.70;74.80;;;;;;5106267;27;20059;-86
2021/04/13 10:42:29;;;;;;;10.82;4.65;;;10.90;79.70;;;;;;5130078;27;20522;-82
2021/04/13 10:44:57;;;;;;;12.25;4.05;;;;;;;;;;5102669;27;20044;-86
2021/04/13 10:48:06;;;;;;;8.32;3.97;;;11.40;72.90;;;;;;5090439;27;20047;-85
2021/04/13 10:50:56;;;;;;;9.23;4.03;;;11.60;75.30;;;;;;5085964;27;20047;-84
2021/04/13 10:54:01;;;;;;;9.20;3.78;;;11.70;71.90;;;;;;5115985;27;20048;-83
2021/04/13 10:56:38;;;;;;;7.45;4.00;;;11.80;71.10;;;;;;5109932;27;20054;-85
2021/04/13 10:59:06;;;;;;;12.73;4.50;;;;;;;;;;5105511;27;20051;-82
2021/04/13 11:02:01;;;;;;;9.43;3.85;;;11.70;70.30;;;;;;5108765;27;20059;-85
2021/04/13 11:05:09;;;;;;;8.43;4.25;;;11.70;70.70;;;;;;5127159;27;20058;-84
2021/04/13 11:07:54;;;;;;;6.45;3.17;;;;;;;;;;5138895;27;20110;-84
2021/04/13 11:10:30;;;;;;;7.82;3.10;;;12.00;68.80;;;;;;5121434;27;20044;-85
2021/04/13 11:13:54;;;;;;;11.40;3.00;;;12.10;69.50;;;;;;5078536;27;20058;-89
2021/04/13 11:16:52;;;;;;;7.38;3.53;;;12.30;68.30;;;;;;5020976;28;20061;-85
2021/04/13 11:19:31;;;;;;;7.50;3.03;;;12.40;68.40;;;;;;5004412;28;20480;-86
2021/04/13 11:22:24;;;;;;;6.68;2.60;;;12.30;67.60;;;;;;5077389;27;20047;-84
2021/04/13 11:25:29;;;;;;;8.00;3.05;;;12.50;67.60;;;;;;5109868;27;20082;-84
2021/04/13 11:28:25;;;;;;;6.45;2.90;;;12.60;66.80;;;;;;5123255;27;20039;-83
2021/04/13 11:31:12;;;;;;;5.22;2.67;;;12.70;66.80;;;;;;5102760;27;20066;-85
2021/04/13 11:34:03;;;;;;;3.78;2.53;;;12.80;66.20;;;;;;5098850;27;20067;-84
2021/04/13 11:36:52;;;;;;;11.82;2.92;;;12.40;77.90;;;;;;5121822;27;20628;-85
2021/04/13 11:39:37;;;;;;;6.72;2.40;;;12.80;66.60;;;;;;5102981;27;20051;-85
2021/04/13 11:42:23;;;;;;;4.40;2.83;;;12.70;66.10;;;;;;5137475;27;20077;-84
2021/04/13 11:45:08;;;;;;;7.88;2.92;;;12.80;70.00;;;;;;5108011;27;20062;-85
2021/04/13 11:47:36;;;;;;;7.13;2.90;;;;;;;;;;5122219;27;20482;-84
2021/04/13 11:50:13;;;;;;;7.43;2.88;;;13.00;69.70;;;;;;5105329;27;20133;-85
2021/04/13 11:53:02;;;;;;;6.78;3.15;;;13.10;65.10;;;;;;5127010;27;20558;-84
2021/04/13 11:55:31;;;;;;;9.48;4.25;;;;;;;;;;5124818;27;20588;-85
2021/04/13 11:58:21;;;;;;;11.93;3.20;;;12.90;64.70;;;;;;5120852;27;20054;-84
2021/04/13 12:00:50;;;;;;;14.88;3.10;;;12.80;68.20;;;;;;5101818;27;20054;-82
2021/04/13 12:03:30;;;;;;;6.82;3.67;;;13.00;64.10;;;;;;5099332;27;20055;-82
2021/04/13 12:06:00;;;;;;;9.13;3.22;;;13.10;68.00;;;;;;5128165;27;20645;-82
2021/04/13 12:08:34;;;;;;;5.53;3.70;;;;;;;;;;5105339;27;20054;-83
2021/04/13 12:11:06;;;;;;;6.28;2.83;;;13.40;66.90;;;;;;5123064;27;20047;-88
2021/04/13 12:13:40;;;;;;;8.93;3.33;;;13.40;91.20;;;;;;5100339;27;20074;-88
2021/04/13 12:16:16;;;;;;;10.00;2.97;;;13.40;66.30;;;;;;5101133;27;20043;-88
2021/04/13 12:18:50;;;;;;;7.50;3.25;;;13.40;66.20;;;;;;5098868;27;20052;-84
2021/04/13 12:21:24;;;;;;;4.93;2.80;;;13.40;62.40;;;;;;5120658;27;20046;-84
2021/04/13 12:23:56;;;;;;;6.45;2.97;;;;;;;;;;5094897;27;20406;-85
2021/04/13 12:26:43;;;;;;;7.22;2.60;;;13.30;61.90;;;;;;5101097;27;20039;-85
2021/04/13 12:29:32;;;;;;;8.77;2.53;;;13.40;61.20;;;;;;5102641;27;20046;-86
2021/04/13 12:32:12;;;;;;;5.82;2.97;;;;;;;;;;5119357;27;20051;-83
2021/04/13 12:34:58;;;;;;;5.80;2.83;;;13.30;61.30;;;;;;5121782;27;20055;-80
2021/04/13 12:37:49;;;;;;;6.70;3.78;;;13.30;82.00;;;;;;5101196;27;20057;-79
2021/04/13 12:40:21;;;;;;;6.03;2.40;;;13.00;86.30;;;;;;5126188;27;20043;-81
2021/04/13 12:43:04;;;;;;;7.80;3.38;;;;;;;;;;5125024;27;20054;-84
2021/04/13 12:45:42;;;;;;;6.57;3.70;;;13.20;65.80;;;;;;5109813;27;20056;-85
2021/04/13 12:48:12;;;;;;;7.00;3.13;;;13.10;65.40;;;;;;5102858;27;20043;-80
2021/04/13 12:50:43;;;;;;;6.07;3.05;;;13.30;65.80;;;;;;5084647;27;20631;-80
2021/04/13 12:53:21;;;;;;;10.13;3.17;;;13.40;65.50;;;;;;5099627;27;20055;-83
2021/04/13 12:56:04;;;;;;;9.10;4.28;;;13.30;65.30;;;;;;5119756;27;20062;-80
2021/04/13 12:58:38;;;;;;;11.25;3.72;;;13.30;64.70;;;;;;5115946;27;20055;-79
2021/04/13 13:01:08;;;;;;;7.32;3.42;;;13.00;90.10;;;;;;5076452;27;20044;-82
2021/04/13 13:03:39;;;;;;;5.43;2.70;;;13.40;64.70;;;;;;5102296;28;20047;-82
2021/04/13 13:06:28;;;;;;;4.55;2.25;;;13.10;60.30;;;;;;5123396;27;20043;-81
2021/04/13 13:09:04;;;;;;;10.73;3.28;;;13.10;64.30;;;;;;5119516;27;20059;-81
2021/04/13 13:11:32;;;;;;;6.68;3.22;;;;;;;;;;5126402;28;20063;-83
2021/04/13 13:14:02;;;;;;;5.65;2.92;;;;;;;;;;5103185;28;20145;-82
2021/04/13 13:16:42;;;;;;;5.70;2.40;;;13.20;64.00;;;;;;5121050;28;20051;-80
2021/04/13 13:19:26;;;;;;;4.45;2.20;;;13.40;64.50;;;;;;5099591;28;20048;-81
2021/04/13 13:21:57;;;;;;;5.13;2.25;;;13.60;64.20;;;;;;5107000;28;20039;-79
2021/04/13 13:24:33;;;;;;;6.47;2.57;;;13.80;64.20;;;;;;5122515;27;20059;-81
2021/04/13 13:27:25;;;;;;;8.50;2.72;;;14.20;59.80;;;;;;5101799;27;20697;-80
2021/04/13 13:29:53;;;;;;;5.38;2.55;;;;;;;;;;5124226;27;20067;-81
2021/04/13 13:32:23;;;;;;;6.35;2.45;;;13.90;63.50;;;;;;5108860;27;20051;-82
2021/04/13 13:34:54;;;;;;;7.38;2.45;;;13.90;63.70;;;;;;5092531;27;20039;-88
2021/04/13 13:37:26;;;;;;;13.53;3.57;;;13.70;63.40;;;;;;5102674;27;20487;-83
2021/04/13 13:39:57;;;;;;;7.00;3.17;;;13.70;63.20;;;;;;5106200;27;20799;-85
2021/04/13 13:42:25;;;;;;;6.55;2.20;;;13.50;62.20;;;;;;5122319;27;20046;-83
2021/04/13 13:44:56;;;;;;;8.90;3.88;;;13.40;63.50;;;;;;5110180;27;20040;-81
2021/04/13 13:47:23;;;;;;;7.28;3.20;;;;;;;;;;5107278;27;20074;-81
2021/04/13 13:49:54;;;;;;;5.63;3.83;;;13.20;64.20;;;;;;5091284;27;20051;-81
2021/04/13 13:52:54;;;;;;;8.23;3.72;;;13.20;60.50;;;;;;5123094;27;20059;-80
2021/04/13 13:55:27;;;;;;;7.63;3.65;;;13.10;64.50;;;;;;5124844;27;20800;-79
2021/04/13 13:58:11;;;;;;;6.07;2.67;;;13.10;65.20;;;;;;5103555;22;20053;-79
2021/04/13 14:01:22;;;;;;;4.35;2.35;;;13.00;61.00;;;;;;5053465;28;20057;-82
2021/04/13 14:03:51;;;;;;;8.65;2.80;;;;;;;;;;5021574;28;20054;-81
2021/04/13 14:06:30;;;;;;;4.88;3.65;;;12.50;66.00;;;;;;5033465;28;20049;-81
2021/04/13 14:09:27;;;;;;;8.50;3.08;;;12.70;62.00;;;;;;5036999;28;20045;-81
2021/04/13 14:11:56;;;;;;;6.68;3.47;;;12.60;65.60;;;;;;5028435;28;20056;-80
2021/04/13 14:14:23;;;;;;;7.63;4.13;;;;;;;;;;5056716;28;20044;-80
2021/04/13 14:16:54;;;;;;;10.43;3.50;;;;;;;;;;5032229;28;20504;-80
2021/04/13 14:19:25;;;;;;;9.27;3.03;;;12.40;61.90;;;;;;5040336;28;20531;-81